createdAt,value
2022-10-17T00:01:01.832Z,542.5
2022-10-17T00:02:04.295Z,542.6
2022-10-17T00:03:06.510Z,542.3
2022-10-17T00:04:08.708Z,542
2022-10-17T00:05:11.180Z,542
2022-10-17T00:06:13.651Z,541.9
2022-10-17T00:07:16.128Z,541.8
2022-10-17T00:08:18.317Z,541.8
2022-10-17T00:09:20.233Z,541.8
2022-10-17T00:10:22.706Z,542
2022-10-17T00:11:24.622Z,541.8
2022-10-17T00:12:27.085Z,542.2
2022-10-17T00:13:30.036Z,541.9
2022-10-17T00:14:32.406Z,542
2022-10-17T00:15:34.869Z,541.9
2022-10-17T00:16:37.331Z,541.8
2022-10-17T00:17:39.814Z,541.8
2022-10-17T00:18:42.035Z,542.2
2022-10-17T00:19:44.216Z,542
2022-10-17T00:20:46.420Z,541.9
2022-10-17T00:21:48.896Z,542
2022-10-17T00:22:51.362Z,541.9
2022-10-17T00:23:53.856Z,541.9
2022-10-17T00:24:56.048Z,542
2022-10-17T00:25:58.522Z,542.5
2022-10-17T00:27:00.987Z,542.2
2022-10-17T00:28:02.920Z,542.4
2022-10-17T00:29:05.942Z,542.1
2022-10-17T00:30:08.536Z,542.3
2022-10-17T00:31:10.997Z,542.4
2022-10-17T00:32:13.189Z,542.1
2022-10-17T00:33:15.668Z,542
2022-10-17T00:34:18.152Z,542
2022-10-17T00:35:20.636Z,542
2022-10-17T00:36:23.101Z,541.7
2022-10-17T00:37:25.590Z,542
2022-10-17T00:38:27.781Z,541.8
2022-10-17T00:39:30.251Z,542.1
2022-10-17T00:40:32.718Z,541.8
2022-10-17T00:41:35.187Z,541.7
2022-10-17T00:42:37.382Z,541.8
2022-10-17T00:43:39.304Z,542.1
2022-10-17T00:44:41.885Z,542.1
2022-10-17T00:45:44.172Z,541.8
2022-10-17T00:46:46.634Z,541.7
2022-10-17T00:47:48.580Z,541.7
2022-10-17T00:48:50.506Z,541.8
2022-10-17T00:49:53.340Z,541.4
2022-10-17T00:50:55.259Z,541.5
2022-10-17T00:51:57.742Z,541.3
2022-10-17T00:53:00.221Z,541.4
2022-10-17T00:54:02.755Z,541.5
2022-10-17T00:55:04.677Z,541.4
2022-10-17T00:56:06.853Z,541.2
2022-10-17T00:57:09.323Z,541.1
2022-10-17T00:58:11.791Z,541.2
2022-10-17T00:59:13.420Z,541.4
2022-10-17T01:00:15.618Z,541.3
2022-10-17T01:01:18.415Z,541.6
2022-10-17T01:02:20.930Z,541.2
2022-10-17T01:03:23.409Z,541.2
2022-10-17T01:04:25.602Z,541.1
2022-10-17T01:05:28.077Z,541.3
2022-10-17T01:06:29.999Z,540.9
2022-10-17T01:08:37.455Z,541.3
2022-10-17T01:09:39.927Z,540.8
2022-10-17T01:10:42.393Z,540.9
2022-10-17T01:11:44.588Z,540.8
2022-10-17T01:12:47.064Z,540.7
2022-10-17T01:13:49.230Z,541.4
2022-10-17T01:14:51.708Z,541
2022-10-17T01:15:53.633Z,540.8
2022-10-17T01:16:56.205Z,540.8
2022-10-17T01:17:58.402Z,540.9
2022-10-17T01:19:00.872Z,540.7
2022-10-17T01:20:02.786Z,541
2022-10-17T01:21:05.006Z,541
2022-10-17T01:22:07.197Z,540.5
2022-10-17T01:23:09.666Z,540.6
2022-10-17T01:24:11.325Z,540.7
2022-10-17T01:25:13.523Z,541.3
2022-10-17T01:26:15.718Z,541.2
2022-10-17T01:27:17.914Z,541.5
2022-10-17T01:28:20.359Z,541.4
2022-10-17T01:29:22.622Z,541.8
2022-10-17T01:30:25.197Z,542
2022-10-17T01:31:27.679Z,541.7
2022-10-17T01:32:32.071Z,541.9
2022-10-17T01:33:34.533Z,541.3
2022-10-17T01:34:36.824Z,541.3
2022-10-17T01:35:38.716Z,541.3
2022-10-17T01:36:41.220Z,541.4
2022-10-17T01:37:43.191Z,541.4
2022-10-17T01:38:45.404Z,541.5
2022-10-17T01:39:49.527Z,541.1
2022-10-17T01:40:51.997Z,541.6
2022-10-17T01:41:54.200Z,540.9
2022-10-17T01:42:56.673Z,541.4
2022-10-17T01:43:59.152Z,540.9
2022-10-17T01:45:01.624Z,540.8
2022-10-17T01:46:04.099Z,540.8
2022-10-17T01:47:06.029Z,540.8
2022-10-17T01:48:08.298Z,541.2
2022-10-17T01:49:10.503Z,541.2
2022-10-17T01:50:12.991Z,541.6
2022-10-17T01:51:15.493Z,541.5
2022-10-17T01:52:17.717Z,541.4
2022-10-17T01:53:20.192Z,541.3
2022-10-17T01:54:22.118Z,541
2022-10-17T01:55:24.587Z,541.5
2022-10-17T01:56:27.068Z,541.5
2022-10-17T01:57:30.900Z,541.2
2022-10-17T01:58:32.912Z,541
2022-10-17T01:59:34.842Z,541.1
2022-10-17T02:00:37.092Z,540.9
2022-10-17T02:01:39.854Z,541.2
2022-10-17T02:02:42.163Z,541.1
2022-10-17T02:03:44.711Z,541.6
2022-10-17T02:04:47.168Z,541.1
2022-10-17T02:05:49.078Z,540.6
2022-10-17T02:06:51.543Z,541.1
2022-10-17T02:07:54.035Z,540.9
2022-10-17T02:08:55.949Z,540.6
2022-10-17T02:09:58.155Z,541
2022-10-17T02:11:00.624Z,540.7
2022-10-17T02:12:03.095Z,540.7
2022-10-17T02:13:04.989Z,541.5
2022-10-17T02:14:07.804Z,541.3
2022-10-17T02:15:09.730Z,540.7
2022-10-17T02:16:11.929Z,540.9
2022-10-17T02:17:14.392Z,540.7
2022-10-17T02:18:16.599Z,541
2022-10-17T02:19:19.151Z,541.1
2022-10-17T02:20:21.616Z,541.1
2022-10-17T02:21:24.079Z,541
2022-10-17T02:22:26.262Z,541.4
2022-10-17T02:23:28.774Z,541.2
2022-10-17T02:24:31.246Z,541.3
2022-10-17T02:25:33.174Z,541.2
2022-10-17T02:26:35.648Z,541
2022-10-17T02:27:37.550Z,540.8
2022-10-17T02:28:40.035Z,541.1
2022-10-17T02:29:42.506Z,541.1
2022-10-17T02:30:44.701Z,540.7
2022-10-17T02:31:47.209Z,541.2
2022-10-17T02:33:54.672Z,540.6
2022-10-17T02:34:56.951Z,541.1
2022-10-17T02:35:58.863Z,541.2
2022-10-17T02:37:00.776Z,542
2022-10-17T02:38:03.254Z,541.4
2022-10-17T02:39:05.182Z,541.3
2022-10-17T02:40:07.379Z,541.8
2022-10-17T02:41:09.570Z,541.5
2022-10-17T02:42:11.809Z,541.9
2022-10-17T02:43:14.012Z,542
2022-10-17T02:44:16.486Z,542.1
2022-10-17T02:45:18.140Z,541.8
2022-10-17T02:46:20.620Z,542.3
2022-10-17T02:47:22.818Z,542.2
2022-10-17T02:48:25.288Z,542.5
2022-10-17T02:49:27.493Z,542.4
2022-10-17T02:50:30.797Z,542.7
2022-10-17T02:51:33.260Z,542.6
2022-10-17T02:52:35.491Z,542.5
2022-10-17T02:53:37.984Z,542.6
2022-10-17T02:54:40.205Z,542.3
2022-10-17T02:55:42.669Z,542.8
2022-10-17T02:56:45.137Z,542.6
2022-10-17T02:57:47.336Z,542.6
2022-10-17T02:58:49.843Z,542.3
2022-10-17T02:59:52.322Z,542.3
2022-10-17T03:00:55.055Z,542.1
2022-10-17T03:01:57.535Z,541.9
2022-10-17T03:03:00.011Z,541.2
2022-10-17T03:04:02.207Z,541.3
2022-10-17T03:05:04.399Z,541.5
2022-10-17T03:06:06.954Z,541.6
2022-10-17T03:07:09.148Z,541.5
2022-10-17T03:08:11.613Z,541.1
2022-10-17T03:09:14.093Z,541
2022-10-17T03:10:16.573Z,541.5
2022-10-17T03:11:18.776Z,540.9
2022-10-17T03:12:20.974Z,541
2022-10-17T03:13:22.900Z,540.6
2022-10-17T03:14:25.092Z,540.9
2022-10-17T03:15:27.571Z,541
2022-10-17T03:16:29.764Z,541.3
2022-10-17T03:17:32.268Z,540.8
2022-10-17T03:18:34.458Z,540.8
2022-10-17T03:19:36.632Z,541.2
2022-10-17T03:20:38.830Z,541
2022-10-17T03:21:41.384Z,541.2
2022-10-17T03:22:43.844Z,541.2
2022-10-17T03:23:46.319Z,541
2022-10-17T03:24:48.783Z,541
2022-10-17T03:25:51.288Z,540.8
2022-10-17T03:26:53.512Z,540.4
2022-10-17T03:27:55.979Z,540.4
2022-10-17T03:28:57.976Z,540
2022-10-17T03:30:00.196Z,540.1
2022-10-17T03:31:02.668Z,539.8
2022-10-17T03:32:05.137Z,539.9
2022-10-17T03:33:07.062Z,540.2
2022-10-17T03:34:09.536Z,540.1
2022-10-17T03:36:17.000Z,540
2022-10-17T03:37:19.277Z,539.9
2022-10-17T03:38:21.192Z,539.8
2022-10-17T03:39:23.663Z,540
2022-10-17T03:40:25.864Z,539.7
2022-10-17T03:41:28.348Z,539.7
2022-10-17T03:42:30.777Z,539.2
2022-10-17T03:43:32.972Z,539.3
2022-10-17T03:44:35.442Z,539.5
2022-10-17T03:45:37.906Z,539.7
2022-10-17T03:46:40.100Z,539.2
2022-10-17T03:47:42.572Z,539.2
2022-10-17T03:48:44.767Z,539.4
2022-10-17T03:49:46.686Z,539.5
2022-10-17T03:50:48.922Z,539.6
2022-10-17T03:51:51.419Z,539.5
2022-10-17T03:52:53.973Z,539.3
2022-10-17T03:53:56.435Z,539.6
2022-10-17T03:54:58.634Z,539.2
2022-10-17T03:56:01.101Z,539.4
2022-10-17T03:57:03.356Z,539.2
2022-10-17T03:58:05.282Z,539.3
2022-10-17T03:59:07.475Z,538.9
2022-10-17T04:00:09.666Z,538.9
2022-10-17T04:01:12.049Z,538.8
2022-10-17T04:02:14.552Z,539.1
2022-10-17T04:04:22.026Z,538.7
2022-10-17T04:05:24.194Z,538.8
2022-10-17T04:06:26.672Z,539.3
2022-10-17T04:07:29.264Z,539.3
2022-10-17T04:08:31.847Z,538.9
2022-10-17T04:09:34.304Z,538.8
2022-10-17T04:10:36.514Z,538.9
2022-10-17T04:11:38.687Z,538.8
2022-10-17T04:12:41.176Z,538.3
2022-10-17T04:13:43.649Z,538.5
2022-10-17T04:14:46.113Z,538
2022-10-17T04:15:48.035Z,538.2
2022-10-17T04:16:50.233Z,538.6
2022-10-17T04:17:52.685Z,538.1
2022-10-17T04:18:54.910Z,538.9
2022-10-17T04:19:57.391Z,538.6
2022-10-17T04:20:59.583Z,538.9
2022-10-17T04:22:02.006Z,539.1
2022-10-17T04:23:04.220Z,539
2022-10-17T04:24:06.788Z,538.6
2022-10-17T04:25:08.975Z,538.7
2022-10-17T04:26:11.170Z,538.7
2022-10-17T04:27:13.637Z,538.5
2022-10-17T04:28:15.554Z,538.5
2022-10-17T04:29:18.020Z,538.4
2022-10-17T04:30:20.488Z,538.5
2022-10-17T04:31:22.687Z,538.1
2022-10-17T04:32:25.147Z,537.8
2022-10-17T04:33:27.623Z,538
2022-10-17T04:34:30.107Z,537.8
2022-10-17T04:35:32.297Z,538.1
2022-10-17T04:36:34.769Z,538
2022-10-17T04:37:37.238Z,538.3
2022-10-17T04:38:39.433Z,537.9
2022-10-17T04:39:41.985Z,538.2
2022-10-17T04:40:44.175Z,538
2022-10-17T04:41:46.672Z,538.2
2022-10-17T04:42:49.150Z,538.5
2022-10-17T04:43:52.896Z,538.3
2022-10-17T04:44:55.386Z,538.3
2022-10-17T04:45:57.868Z,537.7
2022-10-17T04:47:00.060Z,537.8
2022-10-17T04:48:02.537Z,537.8
2022-10-17T04:49:04.709Z,537.7
2022-10-17T04:50:07.179Z,537.7
2022-10-17T04:51:09.373Z,537.8
2022-10-17T04:52:11.580Z,537.5
2022-10-17T04:53:14.082Z,537.2
2022-10-17T04:54:16.320Z,536.9
2022-10-17T04:55:18.893Z,537.3
2022-10-17T04:56:20.816Z,537.2
2022-10-17T04:57:22.740Z,537
2022-10-17T04:58:24.665Z,537.1
2022-10-17T04:59:26.917Z,536.9
2022-10-17T05:00:29.110Z,536.7
2022-10-17T05:01:31.654Z,536.7
2022-10-17T05:02:34.145Z,536.6
2022-10-17T05:03:36.328Z,536.7
2022-10-17T05:04:38.793Z,536.8
2022-10-17T05:05:40.998Z,536.5
2022-10-17T05:06:43.468Z,536.5
2022-10-17T05:07:45.952Z,536.5
2022-10-17T05:08:48.421Z,536.5
2022-10-17T05:09:50.890Z,536.9
2022-10-17T05:10:53.726Z,536.8
2022-10-17T05:11:55.970Z,536.8
2022-10-17T05:12:57.606Z,536.9
2022-10-17T05:13:59.317Z,536.9
2022-10-17T05:15:01.550Z,536.9
2022-10-17T05:16:04.025Z,536.7
2022-10-17T05:17:06.512Z,536.6
2022-10-17T05:18:08.458Z,536.5
2022-10-17T05:19:10.728Z,536.7
2022-10-17T05:20:12.634Z,536.8
2022-10-17T05:21:14.807Z,536.7
2022-10-17T05:22:17.041Z,536.6
2022-10-17T05:23:19.251Z,536.4
2022-10-17T05:24:21.185Z,536.3
2022-10-17T05:25:23.650Z,536.3
2022-10-17T05:26:26.216Z,536.1
2022-10-17T05:27:28.692Z,535.7
2022-10-17T05:28:31.490Z,535.6
2022-10-17T05:29:33.698Z,535.5
2022-10-17T05:31:40.892Z,535.3
2022-10-17T05:32:43.367Z,535.4
2022-10-17T05:33:45.861Z,535.1
2022-10-17T05:34:48.032Z,535.1
2022-10-17T05:35:50.216Z,535.1
2022-10-17T05:36:52.694Z,534.9
2022-10-17T05:37:55.173Z,534.5
2022-10-17T05:38:57.375Z,534.6
2022-10-17T05:39:59.856Z,534.4
2022-10-17T05:41:02.350Z,534.6
2022-10-17T05:42:04.928Z,534.6
2022-10-17T05:43:07.406Z,534.8
2022-10-17T05:44:09.889Z,534.8
2022-10-17T05:45:12.092Z,535
2022-10-17T05:46:14.306Z,534.4
2022-10-17T05:47:15.959Z,534.6
2022-10-17T05:48:18.431Z,534.4
2022-10-17T05:50:25.632Z,533.8
2022-10-17T05:51:28.219Z,533.7
2022-10-17T05:52:32.336Z,533.9
2022-10-17T05:53:35.137Z,533.6
2022-10-17T05:54:37.401Z,533.6
2022-10-17T05:55:39.601Z,533.5
2022-10-17T05:56:41.819Z,533.3
2022-10-17T05:57:44.082Z,533.4
2022-10-17T05:59:51.275Z,532.3
2022-10-17T06:00:53.754Z,532.6
2022-10-17T06:01:56.085Z,532.1
2022-10-17T06:02:58.526Z,531.9
2022-10-17T06:04:00.469Z,531.4
2022-10-17T06:05:02.682Z,531.6
2022-10-17T06:06:04.614Z,531.9
2022-10-17T06:07:07.090Z,531.8
2022-10-17T06:08:09.572Z,531.8
2022-10-17T06:09:12.059Z,531.9
2022-10-17T06:10:14.253Z,531.7
2022-10-17T06:11:16.168Z,531.1
2022-10-17T06:12:18.656Z,531.1
2022-10-17T06:13:21.224Z,531
2022-10-17T06:14:23.438Z,531.1
2022-10-17T06:15:25.358Z,530.9
2022-10-17T06:16:27.580Z,531
2022-10-17T06:17:29.529Z,531.6
2022-10-17T06:18:31.493Z,531
2022-10-17T06:19:33.686Z,531.2
2022-10-17T06:20:35.589Z,531.1
2022-10-17T06:21:37.497Z,531.3
2022-10-17T06:22:39.714Z,531.4
2022-10-17T06:23:41.896Z,531.2
2022-10-17T06:24:44.378Z,531.3
2022-10-17T06:25:46.583Z,532
2022-10-17T06:26:48.495Z,531.8
2022-10-17T06:27:50.968Z,531.7
2022-10-17T06:28:53.630Z,531.8
2022-10-17T06:29:55.872Z,531.6
2022-10-17T06:30:57.774Z,531.4
2022-10-17T06:32:00.251Z,531
2022-10-17T06:33:02.473Z,531.1
2022-10-17T06:34:04.948Z,531.5
2022-10-17T06:35:07.151Z,531.9
2022-10-17T06:36:09.347Z,530.9
2022-10-17T06:37:11.557Z,531.4
2022-10-17T06:38:14.030Z,530.9
2022-10-17T06:39:16.503Z,531
2022-10-17T06:40:18.989Z,530.7
2022-10-17T06:41:21.222Z,530.6
2022-10-17T06:42:23.700Z,530.8
2022-10-17T06:44:31.280Z,530.4
2022-10-17T06:45:33.474Z,530.7
2022-10-17T06:46:35.684Z,530.4
2022-10-17T06:47:38.150Z,530.5
2022-10-17T06:48:40.668Z,530
2022-10-17T06:49:43.141Z,530
2022-10-17T06:50:45.359Z,530
2022-10-17T06:51:47.542Z,529.4
2022-10-17T06:52:50.014Z,529.5
2022-10-17T06:53:52.207Z,528.9
2022-10-17T06:54:54.700Z,528.9
2022-10-17T06:55:57.193Z,528.9
2022-10-17T06:56:59.397Z,528.8
2022-10-17T06:58:01.897Z,528.9
2022-10-17T06:59:04.114Z,529
2022-10-17T07:00:06.805Z,528.8
2022-10-17T07:01:10.425Z,528.4
2022-10-17T07:02:12.902Z,528.7
2022-10-17T07:03:15.108Z,528.7
2022-10-17T07:04:17.604Z,527.7
2022-10-17T07:05:19.810Z,527.7
2022-10-17T07:06:22.038Z,528
2022-10-17T07:07:24.530Z,527.8
2022-10-17T07:08:26.998Z,527.6
2022-10-17T07:09:29.470Z,527.5
2022-10-17T07:10:31.647Z,527.2
2022-10-17T07:11:33.847Z,527.3
2022-10-17T07:12:36.041Z,526.7
2022-10-17T07:14:42.670Z,527
2022-10-17T07:15:45.348Z,527.2
2022-10-17T07:16:47.843Z,527
2022-10-17T07:17:50.043Z,526.9
2022-10-17T07:18:52.247Z,526.6
2022-10-17T07:19:54.479Z,526.1
2022-10-17T07:20:56.735Z,526.2
2022-10-17T07:21:59.203Z,525.7
2022-10-17T07:23:01.418Z,526
2022-10-17T07:24:03.338Z,526
2022-10-17T07:25:05.555Z,525.5
2022-10-17T07:26:08.033Z,525.9
2022-10-17T07:27:09.982Z,525.8
2022-10-17T07:28:12.188Z,525.2
2022-10-17T07:29:14.673Z,525.4
2022-10-17T07:30:16.621Z,525
2022-10-17T07:31:19.319Z,524.4
2022-10-17T07:32:21.803Z,524.9
2022-10-17T07:33:24.020Z,524.8
2022-10-17T07:34:26.238Z,524.6
2022-10-17T07:35:28.746Z,524.6
2022-10-17T07:36:30.654Z,524.1
2022-10-17T07:37:34.690Z,523.9
2022-10-17T07:38:36.892Z,523.7
2022-10-17T07:39:39.365Z,523.8
2022-10-17T07:40:41.839Z,523.7
2022-10-17T07:41:43.493Z,523.7
2022-10-17T07:42:45.686Z,523.9
2022-10-17T07:43:48.166Z,523.8
2022-10-17T07:44:50.390Z,523.9
2022-10-17T07:45:52.616Z,524
2022-10-17T07:46:55.197Z,524.5
2022-10-17T07:47:57.666Z,524.1
2022-10-17T07:48:59.860Z,524.1
2022-10-17T07:50:02.066Z,524
2022-10-17T07:51:04.580Z,523.8
2022-10-17T07:52:07.066Z,524
2022-10-17T07:53:09.540Z,524.3
2022-10-17T07:54:12.014Z,524.1
2022-10-17T07:55:14.487Z,524.4
2022-10-17T07:56:16.957Z,524
2022-10-17T07:57:19.428Z,523.7
2022-10-17T07:58:21.900Z,523.9
2022-10-17T07:59:24.106Z,523.6
2022-10-17T08:00:26.645Z,523.8
2022-10-17T08:01:28.849Z,523.9
2022-10-17T08:02:33.546Z,523.6
2022-10-17T08:03:35.463Z,523.6
2022-10-17T08:04:37.667Z,523.3
2022-10-17T08:05:40.176Z,523.7
2022-10-17T08:06:42.396Z,523.5
2022-10-17T08:07:44.593Z,523.6
2022-10-17T08:08:46.795Z,523.5
2022-10-17T08:09:49.278Z,523.2
2022-10-17T08:10:51.473Z,523.7
2022-10-17T08:11:53.674Z,523.2
2022-10-17T08:12:56.149Z,523.6
2022-10-17T08:13:58.349Z,523.4
2022-10-17T08:15:00.819Z,523.7
2022-10-17T08:16:03.011Z,523.7
2022-10-17T08:17:05.211Z,523.9
2022-10-17T08:18:07.775Z,523.6
2022-10-17T08:19:11.311Z,523.9
2022-10-17T08:20:12.963Z,523.8
2022-10-17T08:21:15.171Z,524.1
2022-10-17T08:22:17.679Z,523.7
2022-10-17T08:23:20.151Z,523.9
2022-10-17T08:24:22.639Z,523.7
2022-10-17T08:25:24.849Z,524
2022-10-17T08:26:27.338Z,523.9
2022-10-17T08:27:29.834Z,523.5
2022-10-17T08:28:32.407Z,523.5
2022-10-17T08:29:34.350Z,523.9
2022-10-17T08:30:36.543Z,524.4
2022-10-17T08:31:38.475Z,524.2
2022-10-17T08:32:40.955Z,524.2
2022-10-17T08:33:43.526Z,524
2022-10-17T08:34:45.725Z,524.4
2022-10-17T08:35:47.369Z,523.9
2022-10-17T08:36:49.288Z,524.1
2022-10-17T08:37:51.773Z,523.7
2022-10-17T08:38:55.227Z,524
2022-10-17T08:39:57.418Z,523.9
2022-10-17T08:40:59.888Z,523.9
2022-10-17T08:42:02.365Z,523.9
2022-10-17T08:43:04.559Z,523.9
2022-10-17T08:44:07.041Z,523.7
2022-10-17T08:45:08.963Z,523.9
2022-10-17T08:46:11.472Z,523.8
2022-10-17T08:47:13.700Z,524.2
2022-10-17T08:48:15.877Z,523.6
2022-10-17T08:49:18.422Z,524
2022-10-17T08:50:20.884Z,523.9
2022-10-17T08:51:23.361Z,523.9
2022-10-17T08:52:25.571Z,523.7
2022-10-17T08:53:28.078Z,523.5
2022-10-17T08:54:30.564Z,523.6
2022-10-17T08:55:33.066Z,523.5
2022-10-17T08:57:40.391Z,523.3
2022-10-17T08:58:42.872Z,523.8
2022-10-17T08:59:45.076Z,523.6
2022-10-17T09:00:47.552Z,523.6
2022-10-17T09:01:49.738Z,524
2022-10-17T09:02:52.396Z,523.8
2022-10-17T09:03:54.360Z,524
2022-10-17T09:04:56.938Z,523.7
2022-10-17T09:05:59.133Z,524
2022-10-17T09:07:01.598Z,524.4
2022-10-17T09:08:03.502Z,524.2
2022-10-17T09:09:05.182Z,524.3
2022-10-17T09:10:07.387Z,524.1
2022-10-17T09:11:09.865Z,524.1
2022-10-17T09:12:12.348Z,524
2022-10-17T09:13:14.548Z,524.2
2022-10-17T09:14:17.026Z,524.1
2022-10-17T09:15:19.507Z,523.9
2022-10-17T09:16:21.999Z,523.9
2022-10-17T09:17:24.513Z,523.8
2022-10-17T09:18:26.830Z,523.5
2022-10-17T09:19:29.074Z,522.9
2022-10-17T09:20:31.657Z,523.2
2022-10-17T09:21:34.125Z,523
2022-10-17T09:22:36.611Z,523.1
2022-10-17T09:24:43.562Z,522.8
2022-10-17T09:25:46.032Z,522.7
2022-10-17T09:26:48.512Z,523.2
2022-10-17T09:27:50.996Z,522.7
2022-10-17T09:28:53.310Z,522.7
2022-10-17T09:29:55.917Z,522.7
2022-10-17T09:30:58.112Z,523
2022-10-17T09:32:00.409Z,522.9
2022-10-17T09:33:02.603Z,522.9
2022-10-17T09:34:04.801Z,522.4
2022-10-17T09:35:07.280Z,522.4
2022-10-17T09:36:09.830Z,523
2022-10-17T09:37:12.037Z,522.3
2022-10-17T09:38:14.247Z,522.6
2022-10-17T09:39:16.440Z,522.6
2022-10-17T09:40:18.966Z,522.8
2022-10-17T09:42:26.874Z,522.8
2022-10-17T09:43:29.476Z,522.7
2022-10-17T09:44:32.225Z,522.6
2022-10-17T09:45:34.419Z,522.7
2022-10-17T09:46:36.342Z,522.8
2022-10-17T09:47:39.064Z,522.8
2022-10-17T09:48:41.952Z,522.7
2022-10-17T09:49:43.925Z,522.9
2022-10-17T09:51:51.960Z,522.5
2022-10-17T09:52:54.149Z,522.5
2022-10-17T09:53:56.066Z,522.4
2022-10-17T09:54:58.253Z,522.2
2022-10-17T09:56:00.472Z,522.2
2022-10-17T09:57:03.253Z,521.7
2022-10-17T09:58:05.738Z,521.9
2022-10-17T10:02:24.023Z,521.7
2022-10-17T10:03:26.237Z,521.3
2022-10-17T10:05:33.713Z,521.8
2022-10-17T10:06:35.612Z,521.7
2022-10-17T10:07:38.071Z,521.9
2022-10-17T10:08:40.536Z,521.8
2022-10-17T10:09:43.027Z,521.8
2022-10-17T10:10:45.257Z,521.5
2022-10-17T10:11:47.904Z,521.5
2022-10-17T10:12:50.482Z,521.5
2022-10-17T10:13:52.963Z,521.8
2022-10-17T10:14:57.148Z,521.8
2022-10-17T10:15:59.074Z,521.6
2022-10-17T10:17:01.292Z,521.6
2022-10-17T10:18:02.925Z,521.7
2022-10-17T10:20:10.117Z,522
2022-10-17T10:21:12.040Z,521.8
2022-10-17T10:22:13.956Z,521.8
2022-10-17T10:23:16.304Z,522.1
2022-10-17T10:24:18.222Z,521.9
2022-10-17T10:25:20.708Z,522.1
2022-10-17T10:26:23.285Z,522.2
2022-10-17T10:27:26.041Z,522
2022-10-17T10:28:28.992Z,522.3
2022-10-17T10:29:31.803Z,521.9
2022-10-17T10:31:39.032Z,521.8
2022-10-17T10:32:41.509Z,521.8
2022-10-17T10:34:49.472Z,521.8
2022-10-17T10:35:51.941Z,522.1
2022-10-17T10:36:53.850Z,522.3
2022-10-17T10:37:56.324Z,521.7
2022-10-17T10:40:06.588Z,522.3
2022-10-17T10:41:08.781Z,521.9
2022-10-17T10:42:11.260Z,521.8
2022-10-17T10:43:13.827Z,521.9
2022-10-17T10:44:16.016Z,522.3
2022-10-17T10:46:23.469Z,522.2
2022-10-17T10:47:25.975Z,522.2
2022-10-17T10:48:28.204Z,522.3
2022-10-17T10:49:30.681Z,521.9
2022-10-17T10:50:32.877Z,522.3
2022-10-17T10:51:35.345Z,521.9
2022-10-17T10:52:37.548Z,521.9
2022-10-17T10:53:40.126Z,522.2
2022-10-17T10:54:42.678Z,522.1
2022-10-17T10:55:45.218Z,522.2
2022-10-17T10:57:54.380Z,522.3
2022-10-17T10:58:56.878Z,522.3
2022-10-17T10:59:59.106Z,522.4
2022-10-17T11:01:02.005Z,522.2
2022-10-17T11:02:04.406Z,522.2
2022-10-17T11:04:13.066Z,522.3
2022-10-17T11:05:15.284Z,522.5
2022-10-17T11:06:17.758Z,522.5
2022-10-17T11:07:19.955Z,522.6
2022-10-17T11:08:22.172Z,523
2022-10-17T11:09:24.644Z,522.7
2022-10-17T11:10:26.879Z,523.1
2022-10-17T11:11:29.424Z,523
2022-10-17T11:12:31.779Z,522.8
2022-10-17T11:13:33.986Z,523.1
2022-10-17T11:14:36.481Z,523.2
2022-10-17T11:15:39.037Z,523.3
2022-10-17T11:16:41.283Z,523.3
2022-10-17T11:17:43.480Z,523.3
2022-10-17T11:18:45.962Z,523.2
2022-10-17T11:19:48.767Z,523.4
2022-10-17T11:20:51.265Z,523.4
2022-10-17T11:21:53.458Z,523.4
2022-10-17T11:22:55.663Z,523.6
2022-10-17T11:23:58.131Z,523.5
2022-10-17T11:25:00.610Z,523.5
2022-10-17T11:26:03.332Z,523.3
2022-10-17T11:27:05.597Z,523.1
2022-10-17T11:28:07.781Z,523.3
2022-10-17T11:29:10.484Z,523.5
2022-10-17T11:30:12.448Z,523
2022-10-17T11:31:14.951Z,523
2022-10-17T11:32:17.163Z,523.3
2022-10-17T11:33:19.634Z,523.2
2022-10-17T11:34:22.131Z,523.6
2022-10-17T11:35:24.608Z,523.4
2022-10-17T11:36:26.553Z,523.6
2022-10-17T11:37:29.029Z,523.8
2022-10-17T11:38:30.931Z,523.6
2022-10-17T11:39:33.231Z,523.6
2022-10-17T11:40:35.466Z,523.9
2022-10-17T11:41:37.975Z,523.4
2022-10-17T11:42:39.710Z,523.5
2022-10-17T11:43:42.280Z,524.1
2022-10-17T11:44:44.808Z,523.7
2022-10-17T11:45:46.834Z,523.7
2022-10-17T11:46:49.697Z,523.9
2022-10-17T11:47:51.605Z,524.1
2022-10-17T11:48:53.787Z,524
2022-10-17T11:49:57.659Z,524
2022-10-17T11:52:05.196Z,523.4
2022-10-17T11:53:07.405Z,523.8
2022-10-17T11:54:09.604Z,523.9
2022-10-17T11:55:11.797Z,524.1
2022-10-17T11:56:13.702Z,524.1
2022-10-17T11:57:16.929Z,524.1
2022-10-17T11:58:19.911Z,524.1
2022-10-17T11:59:22.343Z,524
2022-10-17T12:00:24.255Z,523.7
2022-10-17T12:01:26.486Z,524.1
2022-10-17T12:02:31.374Z,523.9
2022-10-17T12:03:33.321Z,524.1
2022-10-17T12:04:35.844Z,524
2022-10-17T12:05:38.325Z,524
2022-10-17T12:06:40.798Z,524.1
2022-10-17T12:08:46.047Z,524.2
2022-10-17T12:09:48.179Z,524.1
2022-10-17T12:10:50.185Z,524.1
2022-10-17T12:11:52.116Z,524.2
2022-10-17T12:12:54.614Z,524.7
2022-10-17T12:13:57.269Z,524.5
2022-10-17T12:14:59.751Z,524.5
2022-10-17T12:16:02.031Z,524.9
2022-10-17T12:17:04.250Z,524.7
2022-10-17T12:18:06.721Z,524.4
2022-10-17T12:19:08.949Z,524.9
2022-10-17T12:20:11.420Z,525
2022-10-17T12:21:13.332Z,524.6
2022-10-17T12:22:15.549Z,524.7
2022-10-17T12:23:18.031Z,524.4
2022-10-17T12:24:20.686Z,524
2022-10-17T12:25:23.160Z,524.3
2022-10-17T12:26:25.547Z,524.4
2022-10-17T12:27:29.557Z,524.9
2022-10-17T12:28:32.536Z,524.5
2022-10-17T12:29:35.076Z,524.5
2022-10-17T12:30:37.552Z,524.7
2022-10-17T12:31:40.039Z,524.5
2022-10-17T12:33:46.762Z,524.8
2022-10-17T12:34:49.284Z,524.6
2022-10-17T12:35:51.472Z,524.7
2022-10-17T12:36:53.937Z,524.5
2022-10-17T12:39:00.855Z,524.8
2022-10-17T12:40:03.155Z,525
2022-10-17T12:41:05.407Z,525.2
2022-10-17T12:42:07.594Z,525.1
2022-10-17T12:43:10.076Z,525
2022-10-17T12:44:12.298Z,525.1
2022-10-17T12:45:14.846Z,524.8
2022-10-17T12:46:17.318Z,524.6
2022-10-17T12:47:21.632Z,524.7
2022-10-17T12:48:24.275Z,525
2022-10-17T12:49:26.613Z,525
2022-10-17T12:50:29.084Z,524.9
2022-10-17T12:52:36.632Z,524.8
2022-10-17T12:53:39.316Z,524.8
2022-10-17T12:55:46.777Z,524.9
2022-10-17T12:56:49.571Z,525.1
2022-10-17T12:57:51.823Z,525.2
2022-10-17T12:58:54.296Z,525
2022-10-17T13:02:06.915Z,525.6
2022-10-17T13:03:09.395Z,525.2
2022-10-17T13:04:11.891Z,525.9
2022-10-17T13:05:14.366Z,525.8
2022-10-17T13:06:16.841Z,525.7
2022-10-17T13:07:19.304Z,525.8
2022-10-17T13:08:21.513Z,525.9
2022-10-17T13:09:24.004Z,525.4
2022-10-17T13:11:29.463Z,525.3
2022-10-17T13:12:35.572Z,525.3
2022-10-17T13:13:40.623Z,525.2
2022-10-17T13:14:43.085Z,525.6
2022-10-17T13:15:45.558Z,525.3
2022-10-17T13:16:48.339Z,524.9
2022-10-17T13:17:50.952Z,525.1
2022-10-17T13:18:52.864Z,525.6
2022-10-17T13:19:55.064Z,525.3
2022-10-17T13:20:57.537Z,525.4
2022-10-17T13:23:05.027Z,525.8
2022-10-17T13:24:07.495Z,525.3
2022-10-17T13:25:09.972Z,525.6
2022-10-17T13:26:11.891Z,525.4
2022-10-17T13:27:15.071Z,525.2
2022-10-17T13:28:17.435Z,525
2022-10-17T13:29:19.937Z,524.7
2022-10-17T13:30:25.662Z,524.9
2022-10-17T13:31:30.815Z,524.7
2022-10-17T13:32:33.998Z,525.1
2022-10-17T13:33:36.555Z,524.5
2022-10-17T13:34:39.060Z,524.9
2022-10-17T13:38:55.945Z,525.1
2022-10-17T13:42:08.426Z,525.1
2022-10-17T13:43:10.892Z,525
2022-10-17T13:44:13.372Z,524.9
2022-10-17T13:45:15.578Z,525
2022-10-17T13:47:22.868Z,525.3
2022-10-17T13:48:25.130Z,524.9
2022-10-17T13:49:29.933Z,525.2
2022-10-17T13:51:37.449Z,525.2
2022-10-17T13:52:40.545Z,525.1
2022-10-17T13:53:42.751Z,525.2
2022-10-17T13:54:45.217Z,524.9
2022-10-17T13:55:59.170Z,525
2022-10-17T13:56:56.622Z,525.3
2022-10-17T13:57:58.537Z,525
2022-10-17T13:59:00.736Z,525.2
2022-10-17T14:00:04.390Z,525
2022-10-17T14:01:10.481Z,525.1
2022-10-17T14:02:13.038Z,525.4
2022-10-17T14:03:15.218Z,524.9
2022-10-17T14:05:23.161Z,525.1
2022-10-17T14:06:25.641Z,524.8
2022-10-17T14:08:33.876Z,524.5
2022-10-17T14:09:36.359Z,524.6
2022-10-17T14:10:38.849Z,524.5
2022-10-17T14:11:41.094Z,524.6
2022-10-17T14:12:43.033Z,524.7
2022-10-17T14:13:45.497Z,524.8
2022-10-17T14:15:52.688Z,524.5
2022-10-17T14:16:54.885Z,524
2022-10-17T14:17:57.137Z,524.5